Aromas, CA

9:39 AM PST on February 28, 2015 (GMT -0800)
Aromas Heights | Change Station
CLOSE
Current Station
Personal Weather Station
Location: Aromas, CA
Elevation: 160 ft
Nearby Weather Stations

Elev 160 ft 36.89 °N, 121.65 °W | Updated 4 seconds ago

Overcast
Overcast
54.4 °F
Feels Like 54.4 °F
N
0.0
Wind Variable Wind from SW
Gusts 0.0 mph

Today
High -- | Low -- °F
--% Chance of Precip.
Yesterday
High -- | Low -- °F
Precip. -- in
6:38 AM 5:59 PM
Waxing Gibbous, 79% visible
Pressure 29.81 in
Visibility 10.0 miles
Clouds Mostly Cloudy 4900 ft
Dew Point 48 °F
Humidity 79%
Rainfall 0.00 in
Snow Depth Not available.
UV 1 out of 12
Pollen 7.20 out of 12
Air Quality Not available.
Flu Activity Not available.
METAR KWVI 281653Z AUTO 07003KT 10SM BKN049 12/08 A2981 RMK AO2 RAB16E26 SLP092 P0000 T01220083

More Conditions Fewer Conditions

Pressure 29.81 in
Visibility 10.0 miles
Clouds Mostly Cloudy 4900 ft
Dew Point 48 °F
Humidity 79%
Rainfall 0.00 in
Snow Depth Not available.
UV 1 out of 12
Pollen 7.20 out of 12
Air Quality Not available.
Flu Activity Not available.
METAR KWVI 281653Z AUTO 07003KT 10SM BKN049 12/08 A2981 RMK AO2 RAB16E26 SLP092 P0000 T01220083

More Conditions Fewer Conditions

10-Day Weather Forecast

Almanac

Astronomy

Feb. 28, 2015 Rise Set
Actual Time
Civil Twilight
Nautical Twilight
Astronomical Twilight
Moon
Length of Visible Light
Length of Day
Tomorrow will be .
, % of the Moon is Illuminated

Today's Extremes

State Highs State Lows

Community

WunderPhotos

Upload Photos

1,801,101 photos uploaded!

WunderBlogs® & News

Nearby

Air Quality

  Air Quality AQ Index Pollutant
Not available.

Snow Depth

Station Depth Elevation

Earthquake Activity

City Distance Mag. Time & Date
Minimum magnitude displayed is 2.5.

Coastal Water Temperatures

Place Temperature

Nearby Weather Stations